Terminal Aerodrome Forecast
Issued by NWS Burlington, VT

Home | Current Version | Previous Version | Text Only | Print | Product List | Glossary On
Versions: 1 2 3 4 5 6 7 8 9 10 11 12 13
000
FTUS41 KBTV 030533
TAFBTV
TAF
KBTV 030533Z 0306/0406 VRB03KT 5SM BR BKN250
     FM030900 VRB03KT 4SM BR BKN050
     FM031500 35005KT P6SM VCSH BKN050
     FM031800 35009KT P6SM SCT050
     FM032300 36006KT P6SM FEW200=

USA.gov is the U.S. government's official web portal to all federal, state and local government web resources and services.